Hannawa Falls, New York
Current Conditions -  °F | °C
As of 3:53 AM on Thursday 25 Dec 2014 (Local Time) from KMSS Reporting Station
Light Rain Light Rain  
Wind Chill: 38°   Ceiling: 5000
Heat Index: 47°   Visibility: 8mi
Dew Point: 41°   Wind: 26mph
Humidity: 80%   Direction: 230°SW
Pressure: 29.31"   Gusts: 45mph
Location:  44.61°N, 74.97°W
Report Text: KMSS 250853Z AUTO 23023G39KT 8SM -RA FEW019 SCT026 OVC050 08/05 A2931 RMK AO2 PK WND 25039/0846 RAB0755 SLP929 P0006 60011 T00830050 53026
Loading
Personal Weather Stations






























Interactive Weather Map New forecast layout! Learn more

10-Day Weather Forecast

Advertisements
Track Severe Weather on mobile